Terminal Aerodrome Forecast
Issued by NWS Louisville, KY

Home | Current Version | Previous Version | Text Only | Print | Product List | Glossary On
Versions: 1 2 3 4 5 6 7 8 9 10 11 12 13 14
000
FTUS43 KLMK 280500
TAFLEX
TAF
KLEX 280525Z 2806/2906 19009KT P6SM SCT250 WS012/20039KT
     FM281300 21013G22KT P6SM SCT060 BKN120
     FM281900 24012KT P6SM SHRA BKN035
     FM290300 28008KT P6SM SCT050=

USA.gov is the U.S. government's official web portal to all federal, state and local government web resources and services.